createdAt,value
2022-08-17T00:00:43.547Z,92.22
2022-08-17T00:01:20.081Z,92.82
2022-08-17T00:01:55.953Z,92.96
2022-08-17T00:02:28.081Z,93.27
2022-08-17T00:03:01.084Z,93.99
2022-08-17T00:03:36.096Z,94.01
2022-08-17T00:04:11.866Z,93.04
2022-08-17T00:04:47.068Z,92.86
2022-08-17T00:05:22.074Z,92.92
2022-08-17T00:05:55.461Z,92.84
2022-08-17T00:06:28.142Z,92.91
2022-08-17T00:06:59.729Z,93.28
2022-08-17T00:07:31.221Z,93.46
2022-08-17T00:08:02.711Z,93.88
2022-08-17T00:08:35.636Z,93.75
2022-08-17T00:09:07.140Z,93.80
2022-08-17T00:09:38.599Z,93.59
2022-08-17T00:10:10.167Z,93.86
2022-08-17T00:10:42.509Z,93.71
2022-08-17T00:11:25.469Z,93.50
2022-08-17T00:12:43.431Z,92.68
2022-08-17T00:12:48.846Z,92.41
2022-08-17T00:13:25.729Z,92.20
2022-08-17T00:13:58.709Z,92.02
2022-08-17T00:14:30.154Z,91.37
2022-08-17T00:15:01.600Z,91.47
2022-08-17T00:15:33.030Z,91.82
2022-08-17T00:16:06.708Z,91.52
2022-08-17T00:16:55.430Z,91.32
2022-08-17T00:17:29.194Z,90.78
2022-08-17T00:18:00.851Z,90.85
2022-08-17T00:19:01.382Z,90.66
2022-08-17T00:19:25.329Z,90.48
2022-08-17T00:19:56.894Z,90.45
2022-08-17T00:20:33.609Z,90.23
2022-08-17T00:21:10.203Z,90.22
2022-08-17T00:22:29.379Z,90.37
2022-08-17T00:22:36.667Z,90.83
2022-08-17T00:23:09.678Z,91.75
2022-08-17T00:23:47.831Z,92.65
2022-08-17T00:24:20.815Z,93.47
2022-08-17T00:24:52.421Z,95.02
2022-08-17T00:25:23.864Z,94.21
2022-08-17T00:25:55.315Z,95.80
2022-08-17T00:26:44.025Z,95.15
2022-08-17T00:27:17.244Z,94.83
2022-08-17T00:27:48.732Z,95.79
2022-08-17T00:28:20.962Z,96.09
2022-08-17T00:28:52.539Z,96.37
2022-08-17T00:29:23.997Z,96.72
2022-08-17T00:29:55.599Z,96.68
2022-08-17T00:30:27.101Z,95.25
2022-08-17T00:30:59.318Z,94.92
2022-08-17T00:31:30.776Z,94.59
2022-08-17T00:33:13.673Z,92.76
2022-08-17T00:33:16.083Z,93.61
2022-08-17T00:33:46.546Z,92.78
2022-08-17T00:34:18.041Z,92.91
2022-08-17T00:34:49.571Z,92.77
2022-08-17T00:35:23.332Z,92.63
2022-08-17T00:35:55.164Z,92.46
2022-08-17T00:36:26.921Z,93.24
2022-08-17T00:36:58.544Z,94.01
2022-08-17T00:37:29.967Z,94.24
2022-08-17T00:38:01.418Z,95.37
2022-08-17T00:38:33.187Z,95.61
2022-08-17T00:39:04.845Z,95.22
2022-08-17T00:39:36.373Z,94.47
2022-08-17T00:40:10.477Z,95.11
2022-08-17T00:40:46.277Z,94.22
2022-08-17T00:41:23.924Z,93.29
2022-08-17T00:41:55.421Z,92.84
2022-08-17T00:42:31.316Z,92.83
2022-08-17T00:43:16.246Z,92.86
2022-08-17T00:43:48.859Z,92.83
2022-08-17T00:44:20.461Z,92.67
2022-08-17T00:44:51.909Z,92.52
2022-08-17T00:45:23.421Z,92.17
2022-08-17T00:45:55.629Z,92.77
2022-08-17T00:46:28.971Z,92.73
2022-08-17T00:47:00.388Z,93.02
2022-08-17T00:47:31.929Z,92.53
2022-08-17T00:48:03.533Z,92.41
2022-08-17T00:48:42.946Z,93.46
2022-08-17T00:49:15.130Z,93.26
2022-08-17T00:49:46.566Z,92.57
2022-08-17T00:50:18.733Z,92.73
2022-08-17T00:50:57.635Z,92.74
2022-08-17T00:51:33.587Z,92.29
2022-08-17T00:52:10.788Z,92.13
2022-08-17T00:52:45.795Z,91.79
2022-08-17T00:53:17.278Z,91.98
2022-08-17T00:53:54.246Z,91.69
2022-08-17T00:54:27.588Z,91.94
2022-08-17T00:54:59.077Z,91.90
2022-08-17T00:55:30.807Z,91.90
2022-08-17T00:56:03.313Z,92.02
2022-08-17T00:56:36.571Z,92.20
2022-08-17T00:57:18.928Z,92.47
2022-08-17T00:57:55.063Z,92.17
2022-08-17T00:58:34.992Z,92.30
2022-08-17T00:59:07.897Z,92.85
2022-08-17T00:59:40.465Z,92.53
2022-08-17T01:00:21.306Z,93.04
2022-08-17T01:00:53.012Z,94.26
2022-08-17T01:01:24.591Z,94.67
2022-08-17T01:01:56.052Z,95.35
2022-08-17T01:02:27.621Z,95.81
2022-08-17T01:02:59.790Z,95.89
2022-08-17T01:03:31.513Z,96.37
2022-08-17T01:04:03.286Z,97.18
2022-08-17T01:04:34.747Z,96.72
2022-08-17T01:05:06.908Z,96.81
2022-08-17T01:05:42.166Z,96.73
2022-08-17T01:06:14.061Z,96.86
2022-08-17T01:06:46.990Z,97.18
2022-08-17T01:07:19.125Z,97.38
2022-08-17T01:07:51.673Z,97.65
2022-08-17T01:08:24.682Z,97.48
2022-08-17T01:08:57.517Z,97.56
2022-08-17T01:09:29.481Z,97.21
2022-08-17T01:10:00.893Z,97.05
2022-08-17T01:10:59.139Z,97.28
2022-08-17T01:11:36.203Z,96.95
2022-08-17T01:12:08.471Z,97.66
2022-08-17T01:12:40.247Z,97.17
2022-08-17T01:13:12.023Z,96.83
2022-08-17T01:13:44.312Z,96.53
2022-08-17T01:14:15.898Z,96.87
2022-08-17T01:14:47.357Z,96.26
2022-08-17T01:15:18.836Z,96.27
2022-08-17T01:15:55.960Z,97.05
2022-08-17T01:16:30.610Z,96.96
2022-08-17T01:17:02.282Z,96.56
2022-08-17T01:17:33.855Z,96.47
2022-08-17T01:18:05.865Z,96.13
2022-08-17T01:18:37.324Z,95.93
2022-08-17T01:19:16.224Z,95.09
2022-08-17T01:19:47.812Z,94.50
2022-08-17T01:20:19.282Z,93.80
2022-08-17T01:20:51.649Z,93.71
2022-08-17T01:21:32.596Z,93.46
2022-08-17T01:22:06.964Z,92.99
2022-08-17T01:22:38.396Z,92.81
2022-08-17T01:23:09.838Z,92.18
2022-08-17T01:23:48.036Z,92.40
2022-08-17T01:24:19.626Z,92.45
2022-08-17T01:24:53.533Z,92.21
2022-08-17T01:25:24.973Z,92.31
2022-08-17T01:25:57.234Z,92.24
2022-08-17T01:26:29.050Z,92.22
2022-08-17T01:27:00.754Z,91.85
2022-08-17T01:27:32.565Z,91.34
2022-08-17T01:28:04.903Z,91.31
2022-08-17T01:28:55.110Z,90.95
2022-08-17T01:29:27.121Z,90.92
2022-08-17T01:29:59.288Z,90.66
2022-08-17T01:30:58.856Z,90.68
2022-08-17T01:31:24.229Z,90.51
2022-08-17T01:31:57.066Z,90.40
2022-08-17T01:32:30.318Z,90.51
2022-08-17T01:33:01.810Z,90.44
2022-08-17T01:33:33.385Z,90.14
2022-08-17T01:34:06.990Z,90.28
2022-08-17T01:34:43.809Z,90.14
2022-08-17T01:35:21.800Z,90.30
2022-08-17T01:35:53.222Z,90.46
2022-08-17T01:36:27.687Z,90.21
2022-08-17T01:36:59.339Z,90.30
2022-08-17T01:37:35.796Z,90.18
2022-08-17T01:38:07.493Z,89.91
2022-08-17T01:38:39.384Z,89.65
2022-08-17T01:39:12.473Z,89.39
2022-08-17T01:39:52.048Z,89.35
2022-08-17T01:40:23.759Z,89.08
2022-08-17T01:40:58.051Z,89.09
2022-08-17T01:41:29.480Z,88.98
2022-08-17T01:42:04.960Z,88.81
2022-08-17T01:42:37.950Z,88.86
2022-08-17T01:43:35.821Z,89.04
2022-08-17T01:44:08.059Z,88.76
2022-08-17T01:44:39.584Z,88.84
2022-08-17T01:45:16.780Z,88.58
2022-08-17T01:45:49.751Z,88.81
2022-08-17T01:46:36.073Z,88.18
2022-08-17T01:47:07.553Z,88.15
2022-08-17T01:47:39.004Z,88.11
2022-08-17T01:48:12.633Z,88.35
2022-08-17T01:48:47.666Z,88.13
2022-08-17T01:49:19.581Z,88.19
2022-08-17T01:49:51.036Z,88.19
2022-08-17T01:50:27.295Z,88.03
2022-08-17T01:50:59.215Z,88.26
2022-08-17T01:51:32.806Z,88.21
2022-08-17T01:52:08.232Z,87.91
2022-08-17T01:52:39.692Z,87.70
2022-08-17T01:53:12.142Z,87.66
2022-08-17T01:53:45.489Z,87.73
2022-08-17T01:54:17.532Z,87.94
2022-08-17T01:54:49.285Z,87.98
2022-08-17T01:55:27.093Z,88.27
2022-08-17T01:56:00.659Z,88.03
2022-08-17T01:56:32.990Z,88.55
2022-08-17T01:57:04.563Z,89.24
2022-08-17T01:57:36.338Z,89.10
2022-08-17T01:58:09.745Z,89.10
2022-08-17T01:58:41.512Z,88.59
2022-08-17T01:59:14.068Z,88.41
2022-08-17T01:59:47.179Z,88.67
2022-08-17T02:00:18.903Z,88.75
2022-08-17T02:01:00.044Z,88.82
2022-08-17T02:01:34.580Z,88.98
2022-08-17T02:02:07.298Z,89.81
2022-08-17T02:02:39.247Z,89.59
2022-08-17T02:03:10.688Z,89.65
2022-08-17T02:03:42.316Z,89.30
2022-08-17T02:04:31.977Z,90.36
2022-08-17T02:05:04.029Z,90.60
2022-08-17T02:05:35.559Z,90.83
2022-08-17T02:06:26.934Z,90.74
2022-08-17T02:06:58.872Z,90.18
2022-08-17T02:07:31.743Z,90.76
2022-08-17T02:08:20.382Z,89.88
2022-08-17T02:09:02.270Z,89.99
2022-08-17T02:09:34.778Z,90.81
2022-08-17T02:10:16.670Z,91.10
2022-08-17T02:10:51.968Z,92.55
2022-08-17T02:11:24.175Z,92.88
2022-08-17T02:11:56.230Z,93.02
2022-08-17T02:12:37.596Z,92.65
2022-08-17T02:13:11.100Z,92.57
2022-08-17T02:13:43.151Z,93.21
2022-08-17T02:14:14.585Z,92.19
2022-08-17T02:14:46.326Z,92.28
2022-08-17T02:15:17.866Z,92.51
2022-08-17T02:15:49.293Z,92.28
2022-08-17T02:16:20.845Z,92.57
2022-08-17T02:16:52.321Z,91.66
2022-08-17T02:17:23.760Z,92.25
2022-08-17T02:17:55.190Z,92.30
2022-08-17T02:18:26.920Z,92.16
2022-08-17T02:18:58.380Z,92.03
2022-08-17T02:19:31.052Z,92.05
2022-08-17T02:20:03.186Z,92.53
2022-08-17T02:20:41.636Z,92.35
2022-08-17T02:21:14.380Z,92.46
2022-08-17T02:21:46.564Z,92.69
2022-08-17T02:22:18.290Z,92.90
2022-08-17T02:22:50.289Z,92.18
2022-08-17T02:23:22.354Z,92.57
2022-08-17T02:23:53.846Z,92.30
2022-08-17T02:24:58.600Z,92.36
2022-08-17T02:25:22.854Z,92.16
2022-08-17T02:25:56.086Z,91.80
2022-08-17T02:26:27.527Z,92.24
2022-08-17T02:26:58.980Z,92.57
2022-08-17T02:27:30.409Z,92.20
2022-08-17T02:28:02.279Z,93.01
2022-08-17T02:28:33.869Z,92.95
2022-08-17T02:29:05.362Z,93.07
2022-08-17T02:29:37.250Z,92.80
2022-08-17T02:30:59.330Z,92.64
2022-08-17T02:31:08.156Z,91.98
2022-08-17T02:31:39.574Z,92.06
2022-08-17T02:32:25.424Z,91.71
2022-08-17T02:33:00.007Z,91.81
2022-08-17T02:33:43.067Z,91.86
2022-08-17T02:34:15.218Z,91.33
2022-08-17T02:34:47.337Z,91.91
2022-08-17T02:35:19.415Z,92.39
2022-08-17T02:35:53.828Z,92.18
2022-08-17T02:36:27.443Z,92.88
2022-08-17T02:36:59.123Z,93.21
2022-08-17T02:37:30.949Z,92.92
2022-08-17T02:38:02.626Z,93.08
2022-08-17T02:38:34.077Z,93.04
2022-08-17T02:39:06.362Z,92.81
2022-08-17T02:39:38.759Z,93.21
2022-08-17T02:40:10.581Z,92.63
2022-08-17T02:40:42.180Z,92.51
2022-08-17T02:41:16.648Z,92.16
2022-08-17T02:41:48.836Z,92.22
2022-08-17T02:42:22.482Z,92.10
2022-08-17T02:42:54.022Z,91.67
2022-08-17T02:43:27.113Z,91.08
2022-08-17T02:43:58.747Z,91.02
2022-08-17T02:44:39.713Z,90.77
2022-08-17T02:45:17.942Z,90.68
2022-08-17T02:45:49.480Z,90.80
2022-08-17T02:46:22.530Z,90.83
2022-08-17T02:46:53.985Z,90.25
2022-08-17T02:47:25.398Z,89.91
2022-08-17T02:47:57.051Z,90.46
2022-08-17T02:48:31.667Z,90.22
2022-08-17T02:49:04.074Z,90.00
2022-08-17T02:49:35.570Z,90.24
2022-08-17T02:50:07.578Z,90.61
2022-08-17T02:50:39.787Z,89.88
2022-08-17T02:51:11.294Z,90.55
2022-08-17T02:51:42.761Z,90.73
2022-08-17T02:52:14.422Z,91.62
2022-08-17T02:52:57.253Z,91.42
2022-08-17T02:53:35.897Z,91.99
2022-08-17T02:54:39.983Z,93.13
2022-08-17T02:54:59.293Z,93.19
2022-08-17T02:55:32.665Z,92.73
2022-08-17T02:56:04.375Z,92.67
2022-08-17T02:56:35.821Z,92.02
2022-08-17T02:57:07.288Z,92.15
2022-08-17T02:57:38.766Z,92.77
2022-08-17T02:58:10.577Z,92.39
2022-08-17T02:58:42.053Z,93.16
2022-08-17T02:59:13.480Z,93.44
2022-08-17T02:59:48.916Z,93.96
2022-08-17T03:00:33.927Z,94.29
2022-08-17T03:01:05.713Z,93.80
2022-08-17T03:01:37.163Z,93.92
2022-08-17T03:02:09.876Z,93.55
2022-08-17T03:02:42.032Z,93.21
2022-08-17T03:03:18.653Z,92.85
2022-08-17T03:03:50.120Z,92.78
2022-08-17T03:04:21.664Z,92.77
2022-08-17T03:04:53.133Z,93.34
2022-08-17T03:05:25.817Z,92.98
2022-08-17T03:05:57.438Z,93.05
2022-08-17T03:06:29.192Z,93.12
2022-08-17T03:07:00.660Z,93.55
2022-08-17T03:07:32.363Z,94.10
2022-08-17T03:08:04.201Z,94.38
2022-08-17T03:08:37.402Z,94.12
2022-08-17T03:09:08.881Z,94.77
2022-08-17T03:09:40.288Z,95.01
2022-08-17T03:10:12.234Z,95.35
2022-08-17T03:10:43.940Z,95.29
2022-08-17T03:11:16.227Z,95.85
2022-08-17T03:11:47.651Z,95.94
2022-08-17T03:12:24.495Z,96.35
2022-08-17T03:12:56.025Z,96.63
2022-08-17T03:13:27.582Z,96.56
2022-08-17T03:13:59.265Z,96.86
2022-08-17T03:14:32.209Z,96.84
2022-08-17T03:15:04.637Z,96.50
2022-08-17T03:15:36.101Z,96.39
2022-08-17T03:16:12.060Z,95.90
2022-08-17T03:16:43.705Z,96.80
2022-08-17T03:17:17.327Z,96.76
2022-08-17T03:17:49.009Z,96.49
2022-08-17T03:18:24.498Z,96.67
2022-08-17T03:18:57.863Z,96.60
2022-08-17T03:19:29.319Z,97.00
2022-08-17T03:20:00.792Z,96.66
2022-08-17T03:20:32.763Z,96.74
2022-08-17T03:21:04.529Z,95.94
2022-08-17T03:21:36.256Z,95.61
2022-08-17T03:22:19.825Z,95.35
2022-08-17T03:23:01.784Z,94.59
2022-08-17T03:23:40.832Z,94.08
2022-08-17T03:24:13.171Z,93.83
2022-08-17T03:24:49.504Z,94.04
2022-08-17T03:25:22.747Z,93.46
2022-08-17T03:25:54.342Z,93.53
2022-08-17T03:26:25.890Z,93.37
2022-08-17T03:27:01.288Z,93.49
2022-08-17T03:27:32.803Z,93.36
2022-08-17T03:28:04.862Z,93.68
2022-08-17T03:28:37.286Z,93.58
2022-08-17T03:29:08.711Z,93.82
2022-08-17T03:29:41.458Z,93.84
2022-08-17T03:30:15.833Z,94.40
2022-08-17T03:30:47.352Z,94.35
2022-08-17T03:31:18.882Z,94.80
2022-08-17T03:31:50.323Z,94.42
2022-08-17T03:32:21.788Z,94.74
2022-08-17T03:32:54.842Z,94.84
2022-08-17T03:33:26.312Z,94.92
2022-08-17T03:33:57.740Z,94.98
2022-08-17T03:34:30.310Z,95.20
2022-08-17T03:35:01.749Z,94.58
2022-08-17T03:35:34.089Z,94.10
2022-08-17T03:36:05.800Z,93.89
2022-08-17T03:36:37.253Z,93.96
2022-08-17T03:37:08.985Z,93.10
2022-08-17T03:37:40.402Z,92.92
2022-08-17T03:38:12.214Z,93.05
2022-08-17T03:38:43.825Z,92.38
2022-08-17T03:39:16.577Z,91.83
2022-08-17T03:39:48.089Z,91.60
2022-08-17T03:40:34.602Z,91.54
2022-08-17T03:41:13.649Z,91.26
2022-08-17T03:41:45.195Z,91.86
2022-08-17T03:42:32.168Z,91.98
2022-08-17T03:43:09.003Z,91.14
2022-08-17T03:43:40.468Z,91.95
2022-08-17T03:44:11.984Z,91.61
2022-08-17T03:44:43.402Z,91.80
2022-08-17T03:45:16.044Z,91.29
2022-08-17T03:46:06.342Z,90.88
2022-08-17T03:47:16.255Z,90.69
2022-08-17T03:48:06.538Z,90.74
2022-08-17T03:48:56.676Z,91.80
2022-08-17T03:49:46.507Z,91.24
2022-08-17T03:50:38.658Z,90.84
2022-08-17T03:51:28.991Z,90.76
2022-08-17T03:52:23.647Z,91.25
2022-08-17T03:53:13.503Z,91.97
2022-08-17T03:54:05.067Z,92.39
2022-08-17T03:54:58.123Z,92.71
2022-08-17T03:55:48.192Z,94.38
2022-08-17T03:56:38.489Z,92.85
2022-08-17T03:57:10.700Z,91.42
2022-08-17T03:57:42.402Z,91.03
2022-08-17T03:58:13.839Z,91.30
2022-08-17T03:58:45.437Z,90.49
2022-08-17T03:59:20.805Z,90.63
2022-08-17T03:59:53.611Z,91.25
2022-08-17T04:00:25.108Z,90.73
2022-08-17T04:00:56.553Z,90.66
2022-08-17T04:01:28.049Z,90.09
2022-08-17T04:02:01.686Z,89.49
2022-08-17T04:02:33.523Z,89.42
2022-08-17T04:03:04.950Z,89.56
2022-08-17T04:03:37.352Z,89.15
2022-08-17T04:04:08.967Z,89.12
2022-08-17T04:04:40.402Z,89.07
2022-08-17T04:05:12.027Z,88.76
2022-08-17T04:05:43.601Z,88.53
2022-08-17T04:06:15.320Z,88.81
2022-08-17T04:06:46.869Z,88.62
2022-08-17T04:07:22.399Z,88.37
2022-08-17T04:07:53.813Z,87.70
2022-08-17T04:08:25.231Z,87.51
2022-08-17T04:08:56.656Z,87.61
2022-08-17T04:09:28.164Z,87.63
2022-08-17T04:09:59.773Z,87.74
2022-08-17T04:10:31.223Z,87.50
2022-08-17T04:11:05.564Z,87.34
2022-08-17T04:11:37.508Z,87.36
2022-08-17T04:12:09.191Z,87.23
2022-08-17T04:12:45.166Z,86.89
2022-08-17T04:13:16.681Z,87.24
2022-08-17T04:13:56.799Z,87.17
2022-08-17T04:14:31.114Z,86.90
2022-08-17T04:15:02.817Z,86.87
2022-08-17T04:15:34.331Z,86.89
2022-08-17T04:16:05.868Z,87.06
2022-08-17T04:16:37.342Z,87.35
2022-08-17T04:17:08.791Z,87.21
2022-08-17T04:17:40.441Z,86.26
2022-08-17T04:18:11.917Z,86.42
2022-08-17T04:18:43.484Z,86.51
2022-08-17T04:19:15.262Z,86.40
2022-08-17T04:19:46.872Z,86.55
2022-08-17T04:20:19.213Z,86.61
2022-08-17T04:20:50.639Z,86.25
2022-08-17T04:21:22.177Z,86.30
2022-08-17T04:21:53.621Z,86.27
2022-08-17T04:22:30.601Z,86.19
2022-08-17T04:23:09.639Z,86.17
2022-08-17T04:23:41.347Z,86.17
2022-08-17T04:24:12.870Z,86.23
2022-08-17T04:24:44.296Z,86.37
2022-08-17T04:25:16.882Z,86.40
2022-08-17T04:25:49.667Z,86.63
2022-08-17T04:26:53.283Z,86.75
2022-08-17T04:27:14.308Z,86.36
2022-08-17T04:27:45.770Z,86.25
2022-08-17T04:28:17.712Z,86.35
2022-08-17T04:28:49.184Z,86.54
2022-08-17T04:29:21.744Z,86.32
2022-08-17T04:29:55.550Z,86.42
2022-08-17T04:30:28.510Z,86.47
2022-08-17T04:30:59.931Z,86.59
2022-08-17T04:31:31.465Z,86.65
2022-08-17T04:32:03.432Z,86.20
2022-08-17T04:33:04.698Z,86.52
2022-08-17T04:33:38.857Z,86.71
2022-08-17T04:34:11.834Z,86.67
2022-08-17T04:34:43.871Z,86.48
2022-08-17T04:35:18.939Z,86.69
2022-08-17T04:35:51.609Z,86.87
2022-08-17T04:36:23.125Z,87.04
2022-08-17T04:36:54.549Z,86.93
2022-08-17T04:37:26.026Z,86.77
2022-08-17T04:37:57.584Z,86.56
2022-08-17T04:38:30.249Z,86.37
2022-08-17T04:39:01.756Z,86.39
2022-08-17T04:39:33.960Z,86.49
2022-08-17T04:40:27.425Z,86.22
2022-08-17T04:41:17.729Z,86.48
2022-08-17T04:42:07.484Z,86.62
2022-08-17T04:42:38.930Z,86.34
2022-08-17T04:43:12.041Z,86.32
2022-08-17T04:43:44.149Z,86.23
2022-08-17T04:44:37.217Z,86.32
2022-08-17T04:45:07.922Z,85.94
2022-08-17T04:45:55.204Z,85.78
2022-08-17T04:46:29.636Z,86.19
2022-08-17T04:47:01.067Z,86.41
2022-08-17T04:47:32.848Z,86.46
2022-08-17T04:48:04.316Z,86.54
2022-08-17T04:48:42.728Z,86.23
2022-08-17T04:49:14.240Z,85.96
2022-08-17T04:49:45.681Z,86.12
2022-08-17T04:50:21.188Z,86.04
2022-08-17T04:50:52.681Z,85.91
2022-08-17T04:51:25.664Z,85.86
2022-08-17T04:51:59.075Z,86.12
2022-08-17T04:52:44.429Z,86.10
2022-08-17T04:53:18.490Z,86.05
2022-08-17T04:53:54.887Z,86.03
2022-08-17T04:54:26.610Z,85.81
2022-08-17T04:54:58.097Z,86.22
2022-08-17T04:55:29.624Z,86.10
2022-08-17T04:56:01.202Z,85.80
2022-08-17T04:56:32.984Z,86.07
2022-08-17T04:57:04.566Z,86.17
2022-08-17T04:57:39.348Z,86.00
2022-08-17T04:58:13.282Z,86.00
2022-08-17T04:58:45.305Z,85.79
2022-08-17T04:59:18.018Z,85.84
2022-08-17T04:59:49.679Z,85.65
2022-08-17T05:00:21.351Z,85.72
2022-08-17T05:00:52.877Z,86.02
2022-08-17T05:01:25.211Z,85.99
2022-08-17T05:01:56.735Z,85.80
2022-08-17T05:02:28.175Z,85.78
2022-08-17T05:02:59.626Z,85.93
2022-08-17T05:03:31.270Z,85.79
2022-08-17T05:04:33.421Z,85.88
2022-08-17T05:04:56.174Z,85.61
2022-08-17T05:05:29.501Z,85.82
2022-08-17T05:06:02.640Z,85.80
2022-08-17T05:06:34.182Z,86.20
2022-08-17T05:07:05.724Z,86.19
2022-08-17T05:07:37.178Z,85.87
2022-08-17T05:08:08.726Z,85.72
2022-08-17T05:08:40.185Z,85.83
2022-08-17T05:09:12.011Z,85.63
2022-08-17T05:09:43.525Z,85.20
2022-08-17T05:10:14.994Z,85.42
2022-08-17T05:10:46.905Z,85.54
2022-08-17T05:11:18.409Z,85.55
2022-08-17T05:11:49.972Z,86.03
2022-08-17T05:12:21.413Z,85.84
2022-08-17T05:12:57.859Z,85.60
2022-08-17T05:13:32.415Z,85.40
2022-08-17T05:14:04.055Z,85.29
2022-08-17T05:14:35.522Z,85.68
2022-08-17T05:15:10.536Z,85.68
2022-08-17T05:15:44.926Z,85.64
2022-08-17T05:16:16.978Z,85.26
2022-08-17T05:16:49.341Z,85.10
2022-08-17T05:17:20.775Z,85.01
2022-08-17T05:17:52.192Z,84.69
2022-08-17T05:18:24.676Z,84.92
2022-08-17T05:18:56.364Z,84.69
2022-08-17T05:19:27.821Z,84.87
2022-08-17T05:19:59.254Z,84.62
2022-08-17T05:20:31.694Z,84.61
2022-08-17T05:21:03.165Z,84.33
2022-08-17T05:21:34.705Z,84.48
2022-08-17T05:22:06.251Z,84.26
2022-08-17T05:22:46.329Z,84.17
2022-08-17T05:23:18.601Z,84.63
2022-08-17T05:23:53.955Z,84.39
2022-08-17T05:24:39.173Z,84.74
2022-08-17T05:25:15.254Z,84.47
2022-08-17T05:25:48.757Z,84.30
2022-08-17T05:26:26.723Z,84.27
2022-08-17T05:27:03.851Z,83.97
2022-08-17T05:27:38.168Z,84.10
2022-08-17T05:28:12.465Z,83.78
2022-08-17T05:28:44.036Z,83.92
2022-08-17T05:29:18.820Z,83.68
2022-08-17T05:29:50.265Z,83.58
2022-08-17T05:30:22.013Z,83.77
2022-08-17T05:30:54.513Z,83.48
2022-08-17T05:31:25.991Z,83.23
2022-08-17T05:31:57.548Z,83.26
2022-08-17T05:32:38.457Z,82.85
2022-08-17T05:33:16.753Z,82.79
2022-08-17T05:33:49.501Z,82.48
2022-08-17T05:34:21.255Z,82.52
2022-08-17T05:34:52.740Z,82.21
2022-08-17T05:35:26.045Z,82.34
2022-08-17T05:35:58.015Z,82.37
2022-08-17T05:36:41.591Z,82.06
2022-08-17T05:37:15.201Z,82.24
2022-08-17T05:37:46.667Z,82.28
2022-08-17T05:38:21.841Z,82.04
2022-08-17T05:38:53.293Z,81.95
2022-08-17T05:39:24.817Z,82.08
2022-08-17T05:39:56.520Z,81.81
2022-08-17T05:40:28.265Z,81.39
2022-08-17T05:41:05.931Z,81.46
2022-08-17T05:41:37.359Z,81.12
2022-08-17T05:42:08.820Z,81.15
2022-08-17T05:42:40.450Z,80.98
2022-08-17T05:43:13.572Z,80.71
2022-08-17T05:43:45.069Z,80.46
2022-08-17T05:44:17.003Z,79.77
2022-08-17T05:44:48.476Z,79.36
2022-08-17T05:45:54.545Z,79.48
2022-08-17T05:46:16.603Z,79.24
2022-08-17T05:46:48.960Z,79.16
2022-08-17T05:47:20.802Z,78.69
2022-08-17T05:47:52.233Z,78.50
2022-08-17T05:48:39.413Z,78.83
2022-08-17T05:49:11.663Z,78.12
2022-08-17T05:49:43.084Z,77.49
2022-08-17T05:50:26.074Z,77.55
2022-08-17T05:50:58.722Z,77.00
2022-08-17T05:51:48.981Z,76.49
2022-08-17T05:52:23.932Z,75.48
2022-08-17T05:52:58.366Z,74.84
2022-08-17T05:53:41.779Z,74.95
2022-08-17T05:54:32.946Z,74.30
2022-08-17T05:55:04.485Z,73.54
2022-08-17T05:55:42.493Z,73.22
2022-08-17T05:56:29.367Z,72.89
2022-08-17T05:57:08.525Z,72.17
2022-08-17T05:57:47.502Z,71.52
2022-08-17T05:58:26.314Z,70.93
2022-08-17T05:59:02.909Z,71.60
2022-08-17T05:59:40.460Z,71.57
2022-08-17T06:00:16.996Z,70.94
2022-08-17T06:00:56.620Z,69.90
2022-08-17T06:01:43.333Z,69.81
2022-08-17T06:02:17.447Z,68.97
2022-08-17T06:02:54.822Z,68.39
2022-08-17T06:03:29.582Z,68.03
2022-08-17T06:04:14.508Z,68.26
2022-08-17T06:04:45.946Z,66.87
2022-08-17T06:05:17.366Z,66.86
2022-08-17T06:05:49.348Z,66.87
2022-08-17T06:06:20.922Z,67.29
2022-08-17T06:07:15.569Z,67.30
2022-08-17T06:07:53.074Z,68.60
2022-08-17T06:08:35.972Z,69.68
2022-08-17T06:09:20.033Z,70.17
2022-08-17T06:10:11.698Z,71.26
2022-08-17T06:10:43.133Z,72.14
2022-08-17T06:11:27.236Z,72.16
2022-08-17T06:12:00.139Z,73.36
2022-08-17T06:12:50.270Z,73.51
2022-08-17T06:13:25.057Z,74.03
2022-08-17T06:14:11.595Z,74.35
2022-08-17T06:15:01.455Z,74.45
2022-08-17T06:15:33.244Z,74.33
2022-08-17T06:16:33.891Z,73.93
2022-08-17T06:17:05.144Z,74.36
2022-08-17T06:17:36.698Z,74.96
2022-08-17T06:18:08.763Z,74.24
2022-08-17T06:18:53.515Z,73.60
2022-08-17T06:19:24.919Z,74.22
2022-08-17T06:19:58.416Z,73.43
2022-08-17T06:20:30.622Z,72.98
2022-08-17T06:21:03.292Z,73.29
2022-08-17T06:21:35.648Z,72.91
2022-08-17T06:22:07.452Z,73.24
2022-08-17T06:22:46.244Z,72.86
2022-08-17T06:23:22.959Z,73.30
2022-08-17T06:23:56.987Z,73.90
2022-08-17T06:24:47.264Z,73.44
2022-08-17T06:25:22.126Z,73.16
2022-08-17T06:25:55.760Z,73.01
2022-08-17T06:26:38.426Z,73.01
2022-08-17T06:27:18.292Z,72.67
2022-08-17T06:27:53.677Z,72.84
2022-08-17T06:28:27.749Z,72.90
2022-08-17T06:29:00.491Z,72.28
2022-08-17T06:29:42.380Z,71.98
2022-08-17T06:30:13.829Z,71.90
2022-08-17T06:30:59.174Z,71.91
2022-08-17T06:31:33.126Z,71.74
2022-08-17T06:32:05.150Z,71.99
2022-08-17T06:32:38.284Z,71.72
2022-08-17T06:33:12.439Z,71.43
2022-08-17T06:33:46.356Z,72.20
2022-08-17T06:34:21.188Z,71.80
2022-08-17T06:34:52.862Z,71.67
2022-08-17T06:35:35.175Z,71.75
2022-08-17T06:36:21.391Z,71.69
2022-08-17T06:37:01.936Z,72.38
2022-08-17T06:37:41.164Z,72.33
2022-08-17T06:38:37.046Z,72.36
2022-08-17T06:39:28.606Z,72.07
2022-08-17T06:40:12.298Z,72.46
2022-08-17T06:40:45.599Z,72.57
2022-08-17T06:41:23.062Z,72.40
2022-08-17T06:42:01.278Z,73.38
2022-08-17T06:42:59.985Z,73.28
2022-08-17T06:43:51.037Z,72.32
2022-08-17T06:44:50.912Z,71.93
2022-08-17T06:45:36.059Z,72.17
2022-08-17T06:46:13.709Z,71.19
2022-08-17T06:47:06.045Z,71.32
2022-08-17T06:47:41.713Z,71.56
2022-08-17T06:48:15.673Z,71.91
2022-08-17T06:48:50.056Z,72.67
2022-08-17T06:49:25.888Z,72.55
2022-08-17T06:50:23.343Z,72.90
2022-08-17T06:50:57.411Z,73.05
2022-08-17T06:51:36.155Z,73.23
2022-08-17T06:52:45.355Z,73.21
2022-08-17T06:53:18.067Z,72.31
2022-08-17T06:54:12.622Z,72.81
2022-08-17T06:54:54.698Z,73.27
2022-08-17T06:55:34.445Z,73.68
2022-08-17T06:56:09.792Z,74.75
2022-08-17T06:56:54.144Z,74.88
2022-08-17T06:57:28.544Z,74.86
2022-08-17T06:58:05.864Z,75.10
2022-08-17T06:58:48.391Z,75.15
2022-08-17T06:59:21.747Z,74.38
2022-08-17T06:59:56.961Z,74.44
2022-08-17T07:00:29.870Z,74.68
2022-08-17T07:01:06.184Z,74.38
2022-08-17T07:01:38.985Z,74.64
2022-08-17T07:02:10.487Z,74.86
2022-08-17T07:02:52.065Z,74.96
2022-08-17T07:03:41.464Z,74.73
2022-08-17T07:04:13.056Z,75.00
2022-08-17T07:04:44.537Z,75.00
2022-08-17T07:05:16.836Z,74.71
2022-08-17T07:05:49.578Z,75.19
2022-08-17T07:06:22.432Z,75.07
2022-08-17T07:07:22.394Z,75.10
2022-08-17T07:08:01.769Z,74.83
2022-08-17T07:08:37.902Z,74.35
2022-08-17T07:09:28.165Z,73.86
2022-08-17T07:10:03.170Z,74.16
2022-08-17T07:10:36.399Z,73.42
2022-08-17T07:11:09.926Z,73.53
2022-08-17T07:11:44.240Z,73.29
2022-08-17T07:12:16.441Z,73.11
2022-08-17T07:12:48.312Z,72.30
2022-08-17T07:13:22.011Z,72.09
2022-08-17T07:13:53.413Z,71.76
2022-08-17T07:14:33.504Z,72.57
2022-08-17T07:15:10.323Z,72.02
2022-08-17T07:15:44.812Z,72.43
2022-08-17T07:16:23.442Z,73.73
2022-08-17T07:16:56.261Z,72.93
2022-08-17T07:17:46.856Z,73.10
2022-08-17T07:18:19.141Z,73.12
2022-08-17T07:18:50.990Z,73.16
2022-08-17T07:19:23.092Z,73.30
2022-08-17T07:19:56.869Z,74.02
2022-08-17T07:20:28.554Z,73.46
2022-08-17T07:21:03.905Z,72.94
2022-08-17T07:21:44.923Z,73.03
2022-08-17T07:22:19.136Z,73.33
2022-08-17T07:23:07.322Z,74.09
2022-08-17T07:23:50.132Z,74.12
2022-08-17T07:24:33.160Z,74.39
2022-08-17T07:25:05.958Z,74.24
2022-08-17T07:25:38.545Z,74.94
2022-08-17T07:26:10.108Z,74.39
2022-08-17T07:26:41.549Z,75.28
2022-08-17T07:27:23.491Z,75.00
2022-08-17T07:27:55.949Z,75.20
2022-08-17T07:28:27.828Z,74.93
2022-08-17T07:28:59.637Z,75.11
2022-08-17T07:29:33.102Z,75.62
2022-08-17T07:30:10.932Z,76.33
2022-08-17T07:30:47.630Z,75.48
2022-08-17T07:31:19.217Z,76.46
2022-08-17T07:31:51.104Z,76.52
2022-08-17T07:32:28.033Z,76.43
2022-08-17T07:33:03.883Z,76.76
2022-08-17T07:33:36.828Z,76.75
2022-08-17T07:34:11.072Z,76.92